Airfield :
LOGIN :

Register | Disclaimer

   EN    FR    IT 

 










Legend :    VFR   Marginal VFR   IFR   Intensive IFR   Very Intensive IFR
Visi :
Ceiling :
>= 8 km
>= 3000ft
5 to 8 km
1000 to 3000 ft
1500m to 5 km
500 to 1000 ft
800 to 1500m
200 to 500 ft
< 800m
< 200 ft
Symbols :   Thunderstorms  Fog  Heavy snow  Heavy precipitations  Wind > 20 kt
SIGMETs :     Misc.  Thunderstorms  Icing  Turbulence  Mountain Waves  Volcanic Ashes






- Airport Elevation : 357 ft
- IATA code : TUF


LFOT - Tours

CURRENT METAR :
  • 241430Z AUTO 07004KT 360V140 CAVOK 24/10 Q1017 NOSIG

EXPIRED METARs :
  • 241400Z AUTO VRB03KT CAVOK 25/11 Q1017 NOSIG
  • 241330Z AUTO 17004KT 080V230 CAVOK 24/11 Q1018 NOSIG
  • 241300Z AUTO 17003KT 120V260 CAVOK 24/11 Q1018 NOSIG
  • 241230Z AUTO VRB03KT CAVOK 24/12 Q1018 NOSIG
  • 241200Z AUTO VRB03KT CAVOK 23/12 Q1018 NOSIG

TAF TAF LFOT
Valid from the 24 at 12:00 until the 25 at 12:00 UTC


241100Z 2412/2512 VRB03KT CAVOK
TEMPO 2500/2508 4000 BR
PROB40
TEMPO 2504/2506 0600 FG VV///
PROB40
TEMPO 2510/2512 4000 SHRA SCT030CB



MET'MAP, your aeronautical weather chart ! - Copyright ORBIFLY December 2007 - Disclaimer

ORBIFLY MET'MAP TEAM :

Programming & Development : Alexandra Zaïnal
Concept & original design : Baudouin d'Aumeries
Assistance for programming : Marc-Olivier Méhu
Technical & hardware support : Manuel Goepfert

Contact : metmap@orbifly.com




SOURCES & CREDITS :

   NOAA